createdAt,value
2023-12-19T00:01:39.756Z,4.00
2023-12-19T00:04:08.099Z,3.30
2023-12-19T00:06:36.481Z,3.58
2023-12-19T00:09:05.241Z,3.63
2023-12-19T00:11:34.829Z,4.03
2023-12-19T00:14:03.242Z,3.33
2023-12-19T00:16:33.875Z,3.83
2023-12-19T00:19:02.353Z,3.65
2023-12-19T00:21:30.730Z,3.70
2023-12-19T00:23:59.023Z,4.22
2023-12-19T00:26:27.362Z,3.88
2023-12-19T00:28:55.670Z,4.00
2023-12-19T00:31:24.414Z,3.97
2023-12-19T00:34:42.944Z,3.88
2023-12-19T00:37:14.051Z,3.85
2023-12-19T00:39:42.442Z,3.60
2023-12-19T00:42:10.796Z,3.50
2023-12-19T00:45:06.605Z,3.55
2023-12-19T00:47:35.882Z,3.72
2023-12-19T00:50:06.230Z,3.63
2023-12-19T00:52:36.059Z,3.33
2023-12-19T00:55:04.912Z,3.50
2023-12-19T00:57:34.570Z,3.67
2023-12-19T01:00:03.560Z,3.40
2023-12-19T01:02:32.506Z,2.92
2023-12-19T01:05:00.918Z,3.28
2023-12-19T01:07:29.308Z,2.97
2023-12-19T01:09:58.907Z,3.15
2023-12-19T01:12:27.176Z,3.22
2023-12-19T01:14:55.397Z,3.25
2023-12-19T01:17:23.657Z,2.80
2023-12-19T01:19:51.945Z,3.28
2023-12-19T01:22:20.312Z,3.05
2023-12-19T01:24:48.556Z,3.13
2023-12-19T01:27:18.301Z,2.78
2023-12-19T01:29:46.693Z,2.88
2023-12-19T01:32:15.470Z,3.08
2023-12-19T01:34:43.735Z,3.00
2023-12-19T01:37:12.166Z,2.90
2023-12-19T01:39:40.518Z,2.90
2023-12-19T01:42:09.067Z,3.08
2023-12-19T01:44:38.745Z,3.38
2023-12-19T01:47:07.013Z,3.28
2023-12-19T01:49:35.489Z,3.17
2023-12-19T01:52:03.945Z,2.80
2023-12-19T01:54:32.669Z,3.25
2023-12-19T01:57:00.977Z,3.08
2023-12-19T01:59:30.404Z,3.33
2023-12-19T02:02:00.076Z,3.40
2023-12-19T02:04:28.489Z,3.35
2023-12-19T02:06:56.830Z,3.55
2023-12-19T02:09:25.201Z,3.40
2023-12-19T02:11:53.546Z,3.22
2023-12-19T02:14:21.936Z,3.30
2023-12-19T02:16:50.154Z,3.25
2023-12-19T02:19:19.737Z,2.70
2023-12-19T02:21:48.790Z,3.00
2023-12-19T02:24:19.520Z,3.40
2023-12-19T02:26:48.030Z,3.45
2023-12-19T02:29:16.261Z,3.30
2023-12-19T02:31:45.160Z,3.42
2023-12-19T02:34:13.555Z,3.70
2023-12-19T02:36:41.898Z,2.95
2023-12-19T02:39:11.923Z,3.00
2023-12-19T02:41:41.698Z,3.53
2023-12-19T02:44:10.021Z,3.25
2023-12-19T02:46:38.567Z,3.20
2023-12-19T02:49:07.062Z,3.38
2023-12-19T02:51:35.404Z,3.22
2023-12-19T02:54:03.724Z,3.33
2023-12-19T02:56:33.182Z,3.33
2023-12-19T02:59:02.952Z,3.42
2023-12-19T03:01:31.375Z,2.78
2023-12-19T03:03:59.891Z,3.30
2023-12-19T03:06:28.262Z,3.00
2023-12-19T03:08:58.642Z,3.17
2023-12-19T03:11:27.177Z,2.83
2023-12-19T03:18:52.359Z,3.15
2023-12-19T03:24:32.001Z,3.03
2023-12-19T03:27:00.264Z,3.30
2023-12-19T03:29:29.529Z,3.00
2023-12-19T03:31:57.976Z,3.40
2023-12-19T03:34:27.789Z,3.20
2023-12-19T03:36:57.796Z,3.58
2023-12-19T03:39:27.016Z,3.15
2023-12-19T03:42:39.015Z,3.15
2023-12-19T03:46:02.660Z,3.20
2023-12-19T03:49:21.565Z,3.33
2023-12-19T03:51:51.401Z,2.83
2023-12-19T03:54:19.631Z,2.67
2023-12-19T03:56:47.793Z,2.95
2023-12-19T03:59:16.024Z,2.72
2023-12-19T04:01:45.772Z,2.78
2023-12-19T04:04:14.826Z,3.15
2023-12-19T04:06:44.955Z,2.78
2023-12-19T04:09:14.948Z,2.90
2023-12-19T04:11:47.958Z,2.80
2023-12-19T04:14:16.515Z,2.75
2023-12-19T04:16:45.065Z,2.78
2023-12-19T04:19:13.929Z,3.00
2023-12-19T04:21:42.227Z,2.42
2023-12-19T04:24:11.763Z,2.45
2023-12-19T04:26:42.914Z,2.25
2023-12-19T04:29:11.403Z,2.60
2023-12-19T04:31:39.651Z,2.50
2023-12-19T04:34:07.922Z,2.60
2023-12-19T04:36:36.306Z,2.53
2023-12-19T04:39:04.710Z,2.50
2023-12-19T04:41:34.421Z,3.53
2023-12-19T04:44:03.909Z,2.47
2023-12-19T04:46:32.063Z,2.30
2023-12-19T04:49:00.582Z,2.40
2023-12-19T04:51:28.816Z,2.30
2023-12-19T04:53:57.375Z,2.40
2023-12-19T04:56:25.569Z,2.50
2023-12-19T04:58:54.111Z,3.92
2023-12-19T05:01:23.705Z,2.83
2023-12-19T05:03:51.001Z,2.70
2023-12-19T05:06:19.719Z,2.88
2023-12-19T05:08:49.051Z,2.78
2023-12-19T05:11:17.297Z,2.72
2023-12-19T05:13:45.462Z,2.40
2023-12-19T05:16:14.830Z,2.38
2023-12-19T05:18:45.490Z,2.53
2023-12-19T05:21:14.506Z,2.38
2023-12-19T05:23:43.175Z,2.30
2023-12-19T05:26:11.389Z,2.00
2023-12-19T05:28:41.289Z,2.20
2023-12-19T05:31:11.023Z,2.28
2023-12-19T05:33:39.654Z,2.40
2023-12-19T05:36:13.334Z,2.00
2023-12-19T05:38:41.541Z,2.38
2023-12-19T05:41:10.700Z,2.50
2023-12-19T05:43:38.853Z,2.65
2023-12-19T05:46:07.025Z,2.60
2023-12-19T05:48:35.443Z,2.45
2023-12-19T05:51:04.700Z,2.20
2023-12-19T05:53:34.201Z,2.67
2023-12-19T05:56:02.343Z,2.38
2023-12-19T05:58:30.504Z,2.60
2023-12-19T06:00:58.714Z,3.47
2023-12-19T06:03:27.000Z,2.42
2023-12-19T06:05:55.297Z,2.80
2023-12-19T06:08:24.329Z,2.60
2023-12-19T06:10:55.514Z,2.63
2023-12-19T06:13:25.127Z,2.45
2023-12-19T06:15:53.380Z,2.70
2023-12-19T06:18:21.770Z,2.55
2023-12-19T06:20:49.982Z,2.63
2023-12-19T06:23:18.181Z,2.92
2023-12-19T06:25:46.335Z,2.63
2023-12-19T06:28:18.019Z,2.50
2023-12-19T06:30:46.317Z,2.47
2023-12-19T06:33:14.661Z,2.60
2023-12-19T06:35:45.940Z,2.78
2023-12-19T06:38:14.112Z,2.50
2023-12-19T06:40:42.382Z,2.47
2023-12-19T06:43:11.779Z,2.40
2023-12-19T06:45:41.611Z,2.42
2023-12-19T06:48:09.861Z,2.90
2023-12-19T06:50:40.296Z,2.88
2023-12-19T06:53:08.436Z,2.80
2023-12-19T06:55:36.604Z,2.50
2023-12-19T06:58:05.155Z,3.08
2023-12-19T07:00:33.567Z,2.70
2023-12-19T07:03:03.196Z,2.67
2023-12-19T07:05:31.417Z,2.88
2023-12-19T07:07:59.621Z,3.00
2023-12-19T07:10:28.709Z,2.83
2023-12-19T07:12:56.875Z,3.15
2023-12-19T07:15:25.087Z,2.80
2023-12-19T07:17:53.327Z,2.85
2023-12-19T07:20:22.904Z,2.80
2023-12-19T07:22:51.043Z,2.70
2023-12-19T07:25:19.296Z,2.83
2023-12-19T07:27:47.460Z,2.35
2023-12-19T07:30:15.849Z,2.47
2023-12-19T07:32:44.275Z,2.50
2023-12-19T07:35:14.639Z,3.60
2023-12-19T07:37:44.220Z,2.42
2023-12-19T07:40:13.738Z,2.28
2023-12-19T07:42:42.784Z,3.05
2023-12-19T07:45:11.510Z,2.67
2023-12-19T07:47:39.693Z,2.67
2023-12-19T07:50:11.614Z,2.30
2023-12-19T07:52:40.004Z,2.50
2023-12-19T07:55:11.684Z,2.20
2023-12-19T07:57:40.651Z,2.25
2023-12-19T08:00:10.374Z,2.10
2023-12-19T08:02:43.923Z,2.00
2023-12-19T08:05:13.324Z,2.10
2023-12-19T08:07:41.622Z,2.00
2023-12-19T08:10:11.570Z,1.80
2023-12-19T08:12:40.483Z,2.20
2023-12-19T08:15:11.009Z,1.90
2023-12-19T08:17:40.463Z,2.00
2023-12-19T08:20:11.520Z,2.03
2023-12-19T08:22:39.718Z,2.53
2023-12-19T08:25:09.876Z,2.00
2023-12-19T08:27:39.558Z,2.05
2023-12-19T08:30:09.560Z,2.10
2023-12-19T08:32:37.967Z,2.05
2023-12-19T08:35:07.482Z,1.98
2023-12-19T08:37:36.806Z,2.13
2023-12-19T08:40:05.775Z,1.70
2023-12-19T08:42:34.044Z,1.60
2023-12-19T08:45:03.966Z,1.80
2023-12-19T08:47:32.136Z,1.77
2023-12-19T08:50:00.561Z,1.80
2023-12-19T08:52:29.223Z,1.77
2023-12-19T08:54:57.559Z,1.70
2023-12-19T08:57:25.836Z,1.98
2023-12-19T08:59:54.053Z,1.83
2023-12-19T09:02:23.565Z,2.00
2023-12-19T09:04:55.280Z,1.55
2023-12-19T09:07:24.091Z,1.60
2023-12-19T09:09:55.510Z,1.50
2023-12-19T09:12:23.832Z,1.90
2023-12-19T09:14:52.619Z,1.80
2023-12-19T09:17:20.765Z,1.80
2023-12-19T09:19:50.402Z,1.80
2023-12-19T09:22:18.636Z,1.55
2023-12-19T09:24:46.786Z,1.60
2023-12-19T09:27:15.205Z,1.58
2023-12-19T09:29:43.358Z,1.50
2023-12-19T09:32:13.160Z,1.52
2023-12-19T09:34:41.946Z,1.60
2023-12-19T09:37:11.533Z,1.60
2023-12-19T09:39:39.872Z,1.50
2023-12-19T09:42:09.288Z,1.75
2023-12-19T09:44:37.558Z,1.45
2023-12-19T09:47:06.195Z,1.35
2023-12-19T09:49:40.536Z,1.60
2023-12-19T09:52:13.308Z,1.77
2023-12-19T09:54:42.431Z,1.60
2023-12-19T09:57:13.279Z,1.98
2023-12-19T09:59:51.463Z,1.30
2023-12-19T10:02:22.571Z,1.50
2023-12-19T10:04:50.810Z,1.40
2023-12-19T10:07:20.691Z,1.60
2023-12-19T10:09:54.680Z,1.75
2023-12-19T10:12:23.406Z,1.67
2023-12-19T10:14:52.121Z,1.73
2023-12-19T10:17:20.307Z,1.50
2023-12-19T10:19:48.717Z,1.52
2023-12-19T10:22:22.332Z,1.40
2023-12-19T10:24:53.695Z,1.40
2023-12-19T10:27:24.641Z,1.65
2023-12-19T10:29:52.955Z,1.75
2023-12-19T10:32:21.304Z,1.80
2023-12-19T10:34:57.388Z,1.63
2023-12-19T10:37:39.783Z,1.40
2023-12-19T10:40:13.276Z,1.30
2023-12-19T10:42:41.565Z,1.40
2023-12-19T10:45:10.733Z,1.40
2023-12-19T10:47:39.742Z,1.45
2023-12-19T10:50:08.852Z,1.40
2023-12-19T10:52:39.750Z,1.55
2023-12-19T10:55:17.786Z,1.40
2023-12-19T10:57:52.297Z,1.50
2023-12-19T11:00:24.189Z,1.58
2023-12-19T11:03:06.290Z,1.33
2023-12-19T11:05:41.745Z,1.30
2023-12-19T11:08:14.903Z,1.50
2023-12-19T11:10:46.647Z,1.40
2023-12-19T11:13:15.049Z,1.30
2023-12-19T11:15:49.528Z,1.38
2023-12-19T11:18:23.742Z,1.30
2023-12-19T11:21:00.520Z,1.50
2023-12-19T11:23:40.246Z,1.40
2023-12-19T11:26:12.621Z,1.50
2023-12-19T11:28:41.996Z,1.30
2023-12-19T11:31:31.889Z,1.27
2023-12-19T11:34:03.006Z,1.17
2023-12-19T11:36:31.502Z,1.27
2023-12-19T11:39:27.013Z,1.23
2023-12-19T11:41:56.456Z,1.40
2023-12-19T11:44:38.342Z,1.30
2023-12-19T11:47:16.743Z,1.30
2023-12-19T11:49:45.597Z,1.27
2023-12-19T11:52:33.732Z,1.23
2023-12-19T11:55:05.115Z,1.60
2023-12-19T11:57:34.455Z,1.40
2023-12-19T12:00:03.662Z,1.30
2023-12-19T12:02:40.511Z,1.20
2023-12-19T12:05:14.622Z,1.33
2023-12-19T12:07:48.674Z,1.38
2023-12-19T12:10:21.682Z,1.20
2023-12-19T12:12:50.412Z,1.45
2023-12-19T12:15:20.418Z,1.50
2023-12-19T12:17:49.024Z,1.27
2023-12-19T12:20:17.778Z,1.30
2023-12-19T12:22:46.114Z,1.30
2023-12-19T12:25:14.538Z,1.30
2023-12-19T12:27:44.474Z,1.35
2023-12-19T12:30:13.428Z,1.33
2023-12-19T12:32:42.648Z,1.42
2023-12-19T12:35:29.590Z,1.50
2023-12-19T12:38:01.420Z,1.67
2023-12-19T12:40:30.430Z,1.70
2023-12-19T12:43:29.671Z,1.58
2023-12-19T12:46:12.650Z,1.50
2023-12-19T12:48:42.952Z,1.48
2023-12-19T12:51:11.466Z,1.50
2023-12-19T12:53:40.404Z,1.50
2023-12-19T12:56:12.580Z,1.60
2023-12-19T12:58:42.722Z,1.20
2023-12-19T13:01:11.736Z,1.38
2023-12-19T13:03:40.410Z,1.42
2023-12-19T13:06:09.823Z,1.30
2023-12-19T13:08:38.166Z,1.33
2023-12-19T13:11:08.882Z,1.42
2023-12-19T13:13:37.280Z,1.50
2023-12-19T13:16:09.184Z,1.55
2023-12-19T13:18:40.581Z,1.27
2023-12-19T13:21:10.285Z,1.40
2023-12-19T13:23:38.646Z,1.52
2023-12-19T13:26:06.811Z,2.00
2023-12-19T13:28:35.124Z,1.38
2023-12-19T13:31:05.519Z,1.50
2023-12-19T13:33:35.369Z,1.40
2023-12-19T13:36:03.832Z,1.52
2023-12-19T13:38:32.104Z,1.45
2023-12-19T13:41:01.601Z,1.35
2023-12-19T13:43:30.739Z,1.35
2023-12-19T13:45:59.960Z,1.60
2023-12-19T13:48:28.390Z,1.42
2023-12-19T13:50:58.628Z,2.00
2023-12-19T13:53:26.771Z,1.58
2023-12-19T13:55:55.149Z,1.88
2023-12-19T13:58:23.972Z,1.70
2023-12-19T14:00:53.035Z,1.60
2023-12-19T14:03:21.455Z,1.50
2023-12-19T14:05:49.747Z,1.50
2023-12-19T14:08:19.771Z,1.70
2023-12-19T14:10:52.656Z,1.60
2023-12-19T14:13:21.013Z,1.70
2023-12-19T14:15:54.694Z,1.60
2023-12-19T14:18:23.538Z,1.60
2023-12-19T14:20:51.964Z,1.48
2023-12-19T14:23:21.569Z,1.52
2023-12-19T14:25:49.813Z,1.60
2023-12-19T14:28:18.043Z,1.60
2023-12-19T14:30:46.854Z,1.60
2023-12-19T14:33:15.255Z,1.65
2023-12-19T14:35:44.204Z,1.50
2023-12-19T14:38:13.894Z,1.52
2023-12-19T14:40:43.488Z,1.65
2023-12-19T14:43:11.749Z,1.50
2023-12-19T14:45:40.015Z,1.60
2023-12-19T14:48:09.298Z,1.52
2023-12-19T14:50:37.696Z,1.40
2023-12-19T14:53:06.015Z,1.75
2023-12-19T14:55:36.538Z,1.23
2023-12-19T14:58:08.527Z,1.60
2023-12-19T15:00:38.115Z,1.40
2023-12-19T15:03:06.892Z,1.20
2023-12-19T15:05:35.077Z,1.30
2023-12-19T15:08:04.142Z,1.40
2023-12-19T15:10:32.322Z,1.30
2023-12-19T15:13:00.597Z,1.20
2023-12-19T15:15:30.469Z,1.15
2023-12-19T15:17:58.752Z,1.30
2023-12-19T15:20:27.122Z,1.42
2023-12-19T15:22:55.359Z,1.50
2023-12-19T15:25:23.648Z,1.38
2023-12-19T15:27:51.897Z,1.75
2023-12-19T15:30:20.496Z,1.45
2023-12-19T15:32:50.057Z,1.40
2023-12-19T15:35:18.326Z,1.77
2023-12-19T15:37:47.056Z,1.50
2023-12-19T15:40:15.410Z,1.38
2023-12-19T15:42:43.910Z,1.75
2023-12-19T15:45:12.608Z,1.50
2023-12-19T15:47:40.788Z,1.67
2023-12-19T15:50:11.411Z,1.50
2023-12-19T15:52:40.560Z,1.40
2023-12-19T15:55:09.609Z,1.77
2023-12-19T15:57:38.928Z,1.60
2023-12-19T16:00:09.502Z,1.90
2023-12-19T16:02:45.770Z,1.50
2023-12-19T16:05:18.597Z,1.83
2023-12-19T16:07:46.909Z,1.67
2023-12-19T16:10:15.200Z,1.55
2023-12-19T16:12:43.975Z,1.50
2023-12-19T16:15:13.230Z,1.70
2023-12-19T16:17:41.438Z,2.30
2023-12-19T16:20:10.968Z,1.85
2023-12-19T16:22:42.433Z,1.75
2023-12-19T16:25:12.949Z,1.60
2023-12-19T16:27:41.345Z,2.10
2023-12-19T16:30:10.865Z,1.83
2023-12-19T16:32:39.104Z,1.70
2023-12-19T16:35:07.837Z,1.60
2023-12-19T16:37:36.013Z,1.50
2023-12-19T16:40:17.314Z,1.60
2023-12-19T16:42:51.567Z,1.50
2023-12-19T16:45:19.758Z,1.60
2023-12-19T16:47:48.656Z,1.60
2023-12-19T16:50:18.430Z,1.60
2023-12-19T16:52:46.971Z,1.50
2023-12-19T16:55:16.906Z,1.70
2023-12-19T16:57:45.141Z,1.77
2023-12-19T17:00:14.459Z,1.50
2023-12-19T17:02:42.654Z,1.60
2023-12-19T17:05:10.902Z,1.50
2023-12-19T17:07:39.120Z,1.83
2023-12-19T17:10:08.263Z,1.70
2023-12-19T17:12:37.886Z,2.00
2023-12-19T17:15:07.210Z,1.80
2023-12-19T17:17:35.553Z,1.88
2023-12-19T17:20:03.806Z,1.92
2023-12-19T17:22:32.237Z,1.77
2023-12-19T17:25:00.737Z,1.80
2023-12-19T17:27:29.147Z,1.63
2023-12-19T17:29:58.742Z,1.80
2023-12-19T17:32:26.924Z,1.50
2023-12-19T17:34:55.168Z,1.60
2023-12-19T17:37:23.349Z,2.22
2023-12-19T17:39:50.579Z,2.28
2023-12-19T17:42:18.730Z,1.88
2023-12-19T17:44:51.921Z,1.77
2023-12-19T17:47:21.935Z,1.70
2023-12-19T17:49:50.186Z,2.13
2023-12-19T17:52:18.525Z,2.10
2023-12-19T17:54:47.550Z,2.03
2023-12-19T17:57:15.719Z,1.55
2023-12-19T17:59:43.931Z,1.80
2023-12-19T18:02:12.106Z,1.98
2023-12-19T18:04:41.745Z,2.22
2023-12-19T18:07:10.222Z,2.08
2023-12-19T18:09:38.536Z,2.00
2023-12-19T18:12:07.334Z,2.55
2023-12-19T18:14:35.522Z,2.60
2023-12-19T18:17:04.540Z,2.00
2023-12-19T18:19:33.780Z,2.00
2023-12-19T18:22:03.639Z,2.10
2023-12-19T18:24:32.057Z,2.05
2023-12-19T18:27:00.434Z,2.28
2023-12-19T18:29:28.648Z,2.10
2023-12-19T18:31:56.933Z,2.35
2023-12-19T18:34:25.401Z,2.42
2023-12-19T18:36:54.140Z,1.90
2023-12-19T18:39:23.862Z,2.10
2023-12-19T18:41:54.149Z,2.38
2023-12-19T18:44:22.698Z,2.00
2023-12-19T18:46:50.920Z,2.15
2023-12-19T18:49:19.164Z,2.08
2023-12-19T18:51:47.393Z,2.28
2023-12-19T18:54:45.501Z,2.53
2023-12-19T18:57:13.708Z,2.20
2023-12-19T18:59:41.978Z,2.10
2023-12-19T19:02:10.171Z,2.50
2023-12-19T19:04:38.482Z,2.30
2023-12-19T19:07:06.883Z,2.30
2023-12-19T19:09:36.060Z,3.25
2023-12-19T19:12:07.154Z,2.65
2023-12-19T19:14:35.417Z,2.20
2023-12-19T19:17:03.762Z,1.90
2023-12-19T19:19:32.113Z,2.05
2023-12-19T19:22:00.408Z,1.92
2023-12-19T19:25:48.159Z,2.10
2023-12-19T19:28:20.063Z,2.00
2023-12-19T19:30:50.482Z,1.90
2023-12-19T19:33:21.736Z,1.75
2023-12-19T19:35:52.278Z,1.63
2023-12-19T19:38:25.982Z,1.77
2023-12-19T19:40:55.962Z,2.00
2023-12-19T19:43:26.832Z,2.15
2023-12-19T19:45:57.372Z,2.58
2023-12-19T19:48:26.441Z,2.33
2023-12-19T19:50:57.330Z,2.35
2023-12-19T19:53:26.161Z,1.90
2023-12-19T19:55:54.529Z,2.03
2023-12-19T19:58:22.936Z,2.45
2023-12-19T20:00:52.706Z,1.80
2023-12-19T20:03:22.835Z,1.80
2023-12-19T20:05:51.754Z,1.90
2023-12-19T20:08:20.135Z,1.90
2023-12-19T20:10:48.502Z,1.92
2023-12-19T20:13:16.816Z,1.90
2023-12-19T20:15:45.109Z,1.88
2023-12-19T20:18:15.332Z,2.10
2023-12-19T20:20:43.580Z,2.00
2023-12-19T20:23:15.013Z,2.00
2023-12-19T20:25:44.321Z,2.30
2023-12-19T20:28:12.698Z,2.15
2023-12-19T20:30:41.024Z,2.15
2023-12-19T20:33:09.778Z,2.15
2023-12-19T20:35:39.351Z,1.95
2023-12-19T20:38:07.543Z,1.90
2023-12-19T20:40:35.714Z,2.00
2023-12-19T20:43:05.224Z,2.40
2023-12-19T20:45:33.493Z,2.10
2023-12-19T20:48:01.800Z,2.20
2023-12-19T20:50:30.089Z,3.28
2023-12-19T20:54:12.555Z,2.55
2023-12-19T20:56:42.287Z,2.30
2023-12-19T20:59:10.485Z,2.17
2023-12-19T21:01:38.886Z,2.58
2023-12-19T21:04:07.160Z,2.25
2023-12-19T21:06:35.502Z,3.20
2023-12-19T21:09:04.467Z,2.50
2023-12-19T21:11:32.818Z,2.80
2023-12-19T21:14:28.033Z,2.75
2023-12-19T21:19:29.542Z,2.80
2023-12-19T21:21:57.887Z,3.17
2023-12-19T21:24:27.672Z,4.40
2023-12-19T21:26:56.484Z,3.05
2023-12-19T21:29:24.959Z,2.85
2023-12-19T21:31:54.545Z,2.65
2023-12-19T21:34:22.910Z,2.50
2023-12-19T21:36:51.282Z,2.95
2023-12-19T21:39:19.906Z,2.78
2023-12-19T21:41:50.843Z,2.53
2023-12-19T21:44:19.032Z,2.22
2023-12-19T21:46:47.193Z,3.08
2023-12-19T21:49:16.768Z,2.72
2023-12-19T21:51:45.048Z,2.75
2023-12-19T21:54:13.583Z,2.72
2023-12-19T21:56:41.741Z,2.70
2023-12-19T21:59:09.966Z,3.33
2023-12-19T22:01:38.177Z,3.10
2023-12-19T22:04:06.860Z,2.90
2023-12-19T22:06:36.624Z,3.00
2023-12-19T22:09:04.954Z,2.92
2023-12-19T22:11:37.731Z,3.15
2023-12-19T22:14:07.663Z,3.33
2023-12-19T22:16:36.303Z,3.83
2023-12-19T22:19:05.183Z,3.15
2023-12-19T22:21:34.217Z,3.40
2023-12-19T22:24:04.284Z,3.50
2023-12-19T22:26:32.481Z,3.40
2023-12-19T22:29:00.652Z,3.15
2023-12-19T22:31:31.417Z,3.30
2023-12-19T22:33:59.584Z,4.50
2023-12-19T22:36:27.926Z,3.10
2023-12-19T22:38:56.101Z,3.17
2023-12-19T22:41:25.627Z,3.65
2023-12-19T22:43:53.809Z,2.90
2023-12-19T22:46:22.129Z,3.25
2023-12-19T22:48:50.604Z,3.50
2023-12-19T22:51:18.844Z,3.90
2023-12-19T22:53:50.516Z,3.20
2023-12-19T22:56:19.592Z,2.95
2023-12-19T22:58:49.503Z,2.97
2023-12-19T23:01:19.800Z,3.13
2023-12-19T23:03:48.713Z,3.50
2023-12-19T23:06:19.108Z,3.50
2023-12-19T23:08:48.420Z,3.30
2023-12-19T23:11:16.749Z,2.95
2023-12-19T23:13:45.408Z,3.63
2023-12-19T23:16:15.205Z,4.40
2023-12-19T23:18:43.664Z,3.17
2023-12-19T23:21:12.098Z,3.47
2023-12-19T23:23:40.396Z,3.17
2023-12-19T23:26:09.171Z,3.40
2023-12-19T23:28:37.318Z,2.72
2023-12-19T23:31:05.777Z,2.78
2023-12-19T23:33:36.114Z,2.70
2023-12-19T23:36:04.652Z,3.38
2023-12-19T23:38:32.797Z,2.60
2023-12-19T23:41:01.338Z,2.35
2023-12-19T23:43:29.490Z,2.60
2023-12-19T23:45:57.705Z,2.00
2023-12-19T23:48:26.294Z,2.05
2023-12-19T23:50:55.800Z,2.00
2023-12-19T23:53:23.957Z,2.40
2023-12-19T23:55:52.115Z,2.00
2023-12-19T23:58:20.317Z,2.25
